sensor_id;sensor_type;location;lat;lon;timestamp;P1;durP1;ratioP1;P2;durP2;ratioP2
46415;SDS011;32620;51.704;7.822;2023-07-30T00:01:11;14.90;;;10.73;;
46415;SDS011;32620;51.704;7.822;2023-07-30T00:03:36;15.68;;;10.27;;
46415;SDS011;32620;51.704;7.822;2023-07-30T00:06:02;17.95;;;10.98;;
46415;SDS011;32620;51.704;7.822;2023-07-30T00:08:27;14.93;;;10.65;;
46415;SDS011;32620;51.704;7.822;2023-07-30T00:10:53;16.38;;;10.30;;
46415;SDS011;32620;51.704;7.822;2023-07-30T00:13:21;17.58;;;11.15;;
46415;SDS011;32620;51.704;7.822;2023-07-30T00:15:46;18.00;;;10.70;;
46415;SDS011;32620;51.704;7.822;2023-07-30T00:18:12;16.02;;;10.10;;
46415;SDS011;32620;51.704;7.822;2023-07-30T00:20:38;16.52;;;10.80;;
46415;SDS011;32620;51.704;7.822;2023-07-30T00:23:03;15.07;;;10.10;;
46415;SDS011;32620;51.704;7.822;2023-07-30T00:25:29;18.50;;;10.63;;
46415;SDS011;32620;51.704;7.822;2023-07-30T00:27:54;15.98;;;11.00;;
46415;SDS011;32620;51.704;7.822;2023-07-30T00:30:20;17.90;;;11.43;;
46415;SDS011;32620;51.704;7.822;2023-07-30T00:32:45;18.63;;;10.98;;
46415;SDS011;32620;51.704;7.822;2023-07-30T00:35:11;19.85;;;11.00;;
46415;SDS011;32620;51.704;7.822;2023-07-30T00:37:36;21.00;;;11.38;;
46415;SDS011;32620;51.704;7.822;2023-07-30T00:40:02;21.90;;;12.15;;
46415;SDS011;32620;51.704;7.822;2023-07-30T00:42:28;19.67;;;12.35;;
46415;SDS011;32620;51.704;7.822;2023-07-30T00:44:54;19.30;;;11.82;;
46415;SDS011;32620;51.704;7.822;2023-07-30T00:47:20;19.95;;;11.68;;
46415;SDS011;32620;51.704;7.822;2023-07-30T00:49:47;16.83;;;11.27;;
46415;SDS011;32620;51.704;7.822;2023-07-30T00:52:13;20.58;;;11.63;;
46415;SDS011;32620;51.704;7.822;2023-07-30T00:54:41;22.17;;;10.95;;
46415;SDS011;32620;51.704;7.822;2023-07-30T00:57:06;16.92;;;10.43;;
46415;SDS011;32620;51.704;7.822;2023-07-30T00:59:32;17.27;;;10.43;;
46415;SDS011;32620;51.704;7.822;2023-07-30T01:01:58;19.40;;;10.50;;
46415;SDS011;32620;51.704;7.822;2023-07-30T01:04:24;18.48;;;10.35;;
46415;SDS011;32620;51.704;7.822;2023-07-30T01:06:50;14.10;;;9.75;;
46415;SDS011;32620;51.704;7.822;2023-07-30T01:09:16;14.55;;;9.98;;
46415;SDS011;32620;51.704;7.822;2023-07-30T01:11:42;14.07;;;8.80;;
46415;SDS011;32620;51.704;7.822;2023-07-30T01:14:08;14.63;;;7.93;;
46415;SDS011;32620;51.704;7.822;2023-07-30T01:16:35;15.15;;;8.60;;
46415;SDS011;32620;51.704;7.822;2023-07-30T01:19:01;14.52;;;8.13;;
46415;SDS011;32620;51.704;7.822;2023-07-30T01:21:31;14.30;;;8.00;;
46415;SDS011;32620;51.704;7.822;2023-07-30T01:23:57;13.90;;;7.63;;
46415;SDS011;32620;51.704;7.822;2023-07-30T01:26:24;12.70;;;7.43;;
46415;SDS011;32620;51.704;7.822;2023-07-30T01:28:56;17.83;;;7.85;;
46415;SDS011;32620;51.704;7.822;2023-07-30T01:31:25;10.70;;;6.38;;
46415;SDS011;32620;51.704;7.822;2023-07-30T01:33:52;17.65;;;7.00;;
46415;SDS011;32620;51.704;7.822;2023-07-30T01:36:20;14.15;;;6.82;;
46415;SDS011;32620;51.704;7.822;2023-07-30T01:38:47;11.52;;;6.13;;
46415;SDS011;32620;51.704;7.822;2023-07-30T01:41:13;13.93;;;6.25;;
46415;SDS011;32620;51.704;7.822;2023-07-30T01:43:39;15.88;;;7.45;;
46415;SDS011;32620;51.704;7.822;2023-07-30T01:46:05;14.02;;;6.55;;
46415;SDS011;32620;51.704;7.822;2023-07-30T01:48:30;19.40;;;7.22;;
46415;SDS011;32620;51.704;7.822;2023-07-30T01:50:56;9.80;;;6.15;;
46415;SDS011;32620;51.704;7.822;2023-07-30T01:53:21;17.20;;;7.32;;
46415;SDS011;32620;51.704;7.822;2023-07-30T01:55:47;15.05;;;7.40;;
46415;SDS011;32620;51.704;7.822;2023-07-30T01:58:12;12.38;;;6.80;;
46415;SDS011;32620;51.704;7.822;2023-07-30T02:00:38;17.00;;;6.80;;
46415;SDS011;32620;51.704;7.822;2023-07-30T02:03:04;15.60;;;7.00;;
46415;SDS011;32620;51.704;7.822;2023-07-30T02:05:30;12.45;;;6.32;;
46415;SDS011;32620;51.704;7.822;2023-07-30T02:07:56;12.73;;;6.63;;
46415;SDS011;32620;51.704;7.822;2023-07-30T02:10:21;21.70;;;7.45;;
46415;SDS011;32620;51.704;7.822;2023-07-30T02:12:48;12.13;;;6.60;;
46415;SDS011;32620;51.704;7.822;2023-07-30T02:15:14;13.50;;;7.00;;
46415;SDS011;32620;51.704;7.822;2023-07-30T02:17:39;14.85;;;6.53;;
46415;SDS011;32620;51.704;7.822;2023-07-30T02:20:05;14.35;;;6.32;;
46415;SDS011;32620;51.704;7.822;2023-07-30T02:22:31;16.42;;;6.32;;
46415;SDS011;32620;51.704;7.822;2023-07-30T02:24:57;14.30;;;6.65;;
46415;SDS011;32620;51.704;7.822;2023-07-30T02:27:22;13.75;;;7.25;;
46415;SDS011;32620;51.704;7.822;2023-07-30T02:29:48;11.65;;;6.68;;
46415;SDS011;32620;51.704;7.822;2023-07-30T02:32:13;14.25;;;6.47;;
46415;SDS011;32620;51.704;7.822;2023-07-30T02:34:40;11.93;;;6.75;;
46415;SDS011;32620;51.704;7.822;2023-07-30T02:37:06;13.40;;;7.22;;
46415;SDS011;32620;51.704;7.822;2023-07-30T02:39:31;12.15;;;5.72;;
46415;SDS011;32620;51.704;7.822;2023-07-30T02:41:57;10.80;;;6.13;;
46415;SDS011;32620;51.704;7.822;2023-07-30T02:44:22;18.38;;;6.95;;
46415;SDS011;32620;51.704;7.822;2023-07-30T02:46:48;9.40;;;6.10;;
46415;SDS011;32620;51.704;7.822;2023-07-30T02:49:13;12.63;;;5.63;;
46415;SDS011;32620;51.704;7.822;2023-07-30T02:51:39;15.27;;;7.20;;
46415;SDS011;32620;51.704;7.822;2023-07-30T02:54:05;13.77;;;6.18;;
46415;SDS011;32620;51.704;7.822;2023-07-30T02:56:32;14.35;;;7.15;;
46415;SDS011;32620;51.704;7.822;2023-07-30T02:58:58;10.20;;;7.00;;
46415;SDS011;32620;51.704;7.822;2023-07-30T03:01:24;16.17;;;6.55;;
46415;SDS011;32620;51.704;7.822;2023-07-30T03:03:49;11.00;;;6.20;;
46415;SDS011;32620;51.704;7.822;2023-07-30T03:06:15;13.07;;;6.05;;
46415;SDS011;32620;51.704;7.822;2023-07-30T03:08:42;19.38;;;7.47;;
46415;SDS011;32620;51.704;7.822;2023-07-30T03:11:08;13.70;;;7.57;;
46415;SDS011;32620;51.704;7.822;2023-07-30T03:13:33;15.63;;;7.35;;
46415;SDS011;32620;51.704;7.822;2023-07-30T03:15:59;22.05;;;8.25;;
46415;SDS011;32620;51.704;7.822;2023-07-30T03:18:25;16.25;;;7.18;;
46415;SDS011;32620;51.704;7.822;2023-07-30T03:20:50;16.13;;;8.32;;
46415;SDS011;32620;51.704;7.822;2023-07-30T03:23:16;16.70;;;7.30;;
46415;SDS011;32620;51.704;7.822;2023-07-30T03:25:41;18.70;;;7.50;;
46415;SDS011;32620;51.704;7.822;2023-07-30T03:28:07;15.88;;;7.03;;
46415;SDS011;32620;51.704;7.822;2023-07-30T03:30:32;12.23;;;6.47;;
46415;SDS011;32620;51.704;7.822;2023-07-30T03:32:58;20.73;;;7.40;;
46415;SDS011;32620;51.704;7.822;2023-07-30T03:35:23;14.95;;;6.93;;
46415;SDS011;32620;51.704;7.822;2023-07-30T03:37:49;12.70;;;6.43;;
46415;SDS011;32620;51.704;7.822;2023-07-30T03:40:14;11.15;;;6.05;;
46415;SDS011;32620;51.704;7.822;2023-07-30T03:42:40;9.63;;;6.28;;
46415;SDS011;32620;51.704;7.822;2023-07-30T03:45:06;12.98;;;6.07;;
46415;SDS011;32620;51.704;7.822;2023-07-30T03:47:31;11.15;;;5.85;;
46415;SDS011;32620;51.704;7.822;2023-07-30T03:49:57;17.52;;;7.07;;
46415;SDS011;32620;51.704;7.822;2023-07-30T03:52:22;13.40;;;6.20;;
46415;SDS011;32620;51.704;7.822;2023-07-30T03:54:48;17.77;;;7.10;;
46415;SDS011;32620;51.704;7.822;2023-07-30T03:57:13;21.00;;;7.50;;
46415;SDS011;32620;51.704;7.822;2023-07-30T03:59:39;17.35;;;7.38;;
46415;SDS011;32620;51.704;7.822;2023-07-30T04:02:04;15.15;;;7.78;;
46415;SDS011;32620;51.704;7.822;2023-07-30T04:04:30;17.88;;;7.90;;
46415;SDS011;32620;51.704;7.822;2023-07-30T04:06:55;20.52;;;7.72;;
46415;SDS011;32620;51.704;7.822;2023-07-30T04:09:21;19.08;;;7.43;;
46415;SDS011;32620;51.704;7.822;2023-07-30T04:11:47;15.60;;;7.25;;
46415;SDS011;32620;51.704;7.822;2023-07-30T04:14:12;18.90;;;7.38;;
46415;SDS011;32620;51.704;7.822;2023-07-30T04:16:38;15.98;;;7.10;;
46415;SDS011;32620;51.704;7.822;2023-07-30T04:19:03;12.82;;;7.03;;
46415;SDS011;32620;51.704;7.822;2023-07-30T04:21:29;17.60;;;7.30;;
46415;SDS011;32620;51.704;7.822;2023-07-30T04:23:54;18.08;;;7.20;;
46415;SDS011;32620;51.704;7.822;2023-07-30T04:26:20;11.55;;;6.68;;
46415;SDS011;32620;51.704;7.822;2023-07-30T04:28:45;16.67;;;6.40;;
46415;SDS011;32620;51.704;7.822;2023-07-30T04:31:11;17.85;;;6.47;;
46415;SDS011;32620;51.704;7.822;2023-07-30T04:33:36;14.88;;;6.80;;
46415;SDS011;32620;51.704;7.822;2023-07-30T04:36:02;14.05;;;6.45;;
46415;SDS011;32620;51.704;7.822;2023-07-30T04:38:27;14.88;;;6.60;;
46415;SDS011;32620;51.704;7.822;2023-07-30T04:40:57;13.68;;;6.70;;
46415;SDS011;32620;51.704;7.822;2023-07-30T04:43:23;11.77;;;6.25;;
46415;SDS011;32620;51.704;7.822;2023-07-30T04:45:48;17.10;;;5.90;;
46415;SDS011;32620;51.704;7.822;2023-07-30T04:48:14;17.17;;;5.90;;
46415;SDS011;32620;51.704;7.822;2023-07-30T04:50:39;15.88;;;6.25;;
46415;SDS011;32620;51.704;7.822;2023-07-30T04:53:06;11.15;;;5.65;;
46415;SDS011;32620;51.704;7.822;2023-07-30T04:55:33;15.90;;;5.55;;
46415;SDS011;32620;51.704;7.822;2023-07-30T04:57:58;12.10;;;5.35;;
46415;SDS011;32620;51.704;7.822;2023-07-30T05:00:24;14.98;;;5.15;;
46415;SDS011;32620;51.704;7.822;2023-07-30T05:02:50;9.77;;;4.80;;
46415;SDS011;32620;51.704;7.822;2023-07-30T05:05:15;13.30;;;5.30;;
46415;SDS011;32620;51.704;7.822;2023-07-30T05:07:41;11.05;;;4.60;;
46415;SDS011;32620;51.704;7.822;2023-07-30T05:10:06;11.65;;;4.75;;
46415;SDS011;32620;51.704;7.822;2023-07-30T05:12:35;12.35;;;4.93;;
46415;SDS011;32620;51.704;7.822;2023-07-30T05:15:00;14.25;;;5.10;;
46415;SDS011;32620;51.704;7.822;2023-07-30T05:17:26;10.48;;;4.78;;
46415;SDS011;32620;51.704;7.822;2023-07-30T05:19:51;12.02;;;4.72;;
46415;SDS011;32620;51.704;7.822;2023-07-30T05:22:17;11.70;;;5.18;;
46415;SDS011;32620;51.704;7.822;2023-07-30T05:24:43;12.40;;;5.47;;
46415;SDS011;32620;51.704;7.822;2023-07-30T05:27:08;15.55;;;4.90;;
46415;SDS011;32620;51.704;7.822;2023-07-30T05:29:34;10.25;;;5.20;;
46415;SDS011;32620;51.704;7.822;2023-07-30T05:31:59;13.38;;;5.68;;
46415;SDS011;32620;51.704;7.822;2023-07-30T05:34:25;14.35;;;4.97;;
46415;SDS011;32620;51.704;7.822;2023-07-30T05:36:50;16.52;;;4.50;;
46415;SDS011;32620;51.704;7.822;2023-07-30T05:39:16;15.23;;;4.97;;
46415;SDS011;32620;51.704;7.822;2023-07-30T05:41:41;10.50;;;4.60;;
46415;SDS011;32620;51.704;7.822;2023-07-30T05:44:07;13.70;;;4.78;;
46415;SDS011;32620;51.704;7.822;2023-07-30T05:46:32;13.55;;;4.65;;
46415;SDS011;32620;51.704;7.822;2023-07-30T05:48:58;10.60;;;4.30;;
46415;SDS011;32620;51.704;7.822;2023-07-30T05:51:23;18.25;;;4.90;;
46415;SDS011;32620;51.704;7.822;2023-07-30T05:53:49;14.50;;;5.03;;
46415;SDS011;32620;51.704;7.822;2023-07-30T05:56:14;13.60;;;5.38;;
46415;SDS011;32620;51.704;7.822;2023-07-30T05:58:43;14.15;;;5.35;;
46415;SDS011;32620;51.704;7.822;2023-07-30T06:01:09;17.02;;;6.53;;
46415;SDS011;32620;51.704;7.822;2023-07-30T06:03:34;18.77;;;6.60;;
46415;SDS011;32620;51.704;7.822;2023-07-30T06:06:01;16.13;;;7.53;;
46415;SDS011;32620;51.704;7.822;2023-07-30T06:08:26;17.42;;;7.53;;
46415;SDS011;32620;51.704;7.822;2023-07-30T06:10:52;19.23;;;7.47;;
46415;SDS011;32620;51.704;7.822;2023-07-30T06:13:17;16.35;;;7.57;;
46415;SDS011;32620;51.704;7.822;2023-07-30T06:15:43;21.08;;;8.00;;
46415;SDS011;32620;51.704;7.822;2023-07-30T06:18:09;17.38;;;8.55;;
46415;SDS011;32620;51.704;7.822;2023-07-30T06:20:34;19.52;;;8.93;;
46415;SDS011;32620;51.704;7.822;2023-07-30T06:23:00;16.63;;;7.88;;
46415;SDS011;32620;51.704;7.822;2023-07-30T06:25:25;15.82;;;8.77;;
46415;SDS011;32620;51.704;7.822;2023-07-30T06:27:51;19.13;;;8.65;;
46415;SDS011;32620;51.704;7.822;2023-07-30T06:30:17;18.38;;;7.20;;
46415;SDS011;32620;51.704;7.822;2023-07-30T06:32:42;15.63;;;7.47;;
46415;SDS011;32620;51.704;7.822;2023-07-30T06:35:08;21.15;;;8.20;;
46415;SDS011;32620;51.704;7.822;2023-07-30T06:37:33;26.35;;;8.88;;
46415;SDS011;32620;51.704;7.822;2023-07-30T06:39:59;24.30;;;8.85;;
46415;SDS011;32620;51.704;7.822;2023-07-30T06:42:24;18.73;;;8.98;;
46415;SDS011;32620;51.704;7.822;2023-07-30T06:44:50;23.40;;;10.35;;
46415;SDS011;32620;51.704;7.822;2023-07-30T06:47:15;17.90;;;9.07;;
46415;SDS011;32620;51.704;7.822;2023-07-30T06:49:41;22.08;;;9.30;;
46415;SDS011;32620;51.704;7.822;2023-07-30T06:52:07;17.95;;;8.55;;
46415;SDS011;32620;51.704;7.822;2023-07-30T06:54:32;21.15;;;8.85;;
46415;SDS011;32620;51.704;7.822;2023-07-30T06:56:58;22.33;;;9.65;;
46415;SDS011;32620;51.704;7.822;2023-07-30T06:59:23;24.10;;;10.75;;
46415;SDS011;32620;51.704;7.822;2023-07-30T07:01:49;22.73;;;10.35;;
46415;SDS011;32620;51.704;7.822;2023-07-30T07:04:14;25.10;;;9.77;;
46415;SDS011;32620;51.704;7.822;2023-07-30T07:06:40;23.58;;;9.90;;
46415;SDS011;32620;51.704;7.822;2023-07-30T07:09:05;26.40;;;11.77;;
46415;SDS011;32620;51.704;7.822;2023-07-30T07:11:31;23.45;;;11.10;;
46415;SDS011;32620;51.704;7.822;2023-07-30T07:13:56;21.92;;;10.75;;
46415;SDS011;32620;51.704;7.822;2023-07-30T07:16:22;29.00;;;11.80;;
46415;SDS011;32620;51.704;7.822;2023-07-30T07:18:47;23.45;;;11.88;;
46415;SDS011;32620;51.704;7.822;2023-07-30T07:21:14;26.98;;;12.93;;
46415;SDS011;32620;51.704;7.822;2023-07-30T07:23:39;29.70;;;15.20;;
46415;SDS011;32620;51.704;7.822;2023-07-30T07:26:05;27.20;;;14.98;;
46415;SDS011;32620;51.704;7.822;2023-07-30T07:28:30;24.58;;;13.25;;
46415;SDS011;32620;51.704;7.822;2023-07-30T07:30:56;29.88;;;14.20;;
46415;SDS011;32620;51.704;7.822;2023-07-30T07:33:22;31.45;;;14.63;;
46415;SDS011;32620;51.704;7.822;2023-07-30T07:35:47;28.67;;;15.43;;
46415;SDS011;32620;51.704;7.822;2023-07-30T07:38:13;30.05;;;17.02;;
46415;SDS011;32620;51.704;7.822;2023-07-30T07:40:39;37.58;;;19.77;;
46415;SDS011;32620;51.704;7.822;2023-07-30T07:43:05;36.88;;;17.67;;
46415;SDS011;32620;51.704;7.822;2023-07-30T07:45:31;31.05;;;17.08;;
46415;SDS011;32620;51.704;7.822;2023-07-30T07:47:56;31.73;;;16.67;;
46415;SDS011;32620;51.704;7.822;2023-07-30T07:50:22;32.88;;;16.40;;
46415;SDS011;32620;51.704;7.822;2023-07-30T07:52:47;30.13;;;16.08;;
46415;SDS011;32620;51.704;7.822;2023-07-30T07:55:13;28.27;;;15.68;;
46415;SDS011;32620;51.704;7.822;2023-07-30T07:57:39;28.85;;;15.40;;
46415;SDS011;32620;51.704;7.822;2023-07-30T08:00:05;27.20;;;14.93;;
46415;SDS011;32620;51.704;7.822;2023-07-30T08:02:31;23.73;;;14.02;;
46415;SDS011;32620;51.704;7.822;2023-07-30T08:04:57;29.92;;;13.15;;
46415;SDS011;32620;51.704;7.822;2023-07-30T08:07:22;24.77;;;13.52;;
46415;SDS011;32620;51.704;7.822;2023-07-30T08:09:48;25.15;;;12.50;;
46415;SDS011;32620;51.704;7.822;2023-07-30T08:12:13;33.30;;;13.55;;
46415;SDS011;32620;51.704;7.822;2023-07-30T08:14:39;21.60;;;12.50;;
46415;SDS011;32620;51.704;7.822;2023-07-30T08:17:04;24.27;;;12.27;;
46415;SDS011;32620;51.704;7.822;2023-07-30T08:19:30;24.13;;;12.30;;
46415;SDS011;32620;51.704;7.822;2023-07-30T08:21:57;21.83;;;12.23;;
46415;SDS011;32620;51.704;7.822;2023-07-30T08:24:23;27.10;;;13.07;;
46415;SDS011;32620;51.704;7.822;2023-07-30T08:26:49;22.50;;;12.30;;
46415;SDS011;32620;51.704;7.822;2023-07-30T08:29:14;30.35;;;12.25;;
46415;SDS011;32620;51.704;7.822;2023-07-30T08:31:40;21.05;;;11.75;;
46415;SDS011;32620;51.704;7.822;2023-07-30T08:34:06;23.20;;;11.85;;
46415;SDS011;32620;51.704;7.822;2023-07-30T08:36:32;20.35;;;13.20;;
46415;SDS011;32620;51.704;7.822;2023-07-30T08:38:57;22.20;;;11.82;;
46415;SDS011;32620;51.704;7.822;2023-07-30T08:41:23;27.52;;;12.38;;
46415;SDS011;32620;51.704;7.822;2023-07-30T08:43:49;22.38;;;12.73;;
46415;SDS011;32620;51.704;7.822;2023-07-30T08:46:16;27.70;;;11.68;;
46415;SDS011;32620;51.704;7.822;2023-07-30T08:48:42;25.85;;;11.73;;
46415;SDS011;32620;51.704;7.822;2023-07-30T08:51:08;23.67;;;11.63;;
46415;SDS011;32620;51.704;7.822;2023-07-30T08:53:35;20.95;;;11.38;;
46415;SDS011;32620;51.704;7.822;2023-07-30T08:56:01;27.63;;;12.02;;
46415;SDS011;32620;51.704;7.822;2023-07-30T08:58:27;22.63;;;12.40;;
46415;SDS011;32620;51.704;7.822;2023-07-30T09:00:55;23.77;;;11.93;;
46415;SDS011;32620;51.704;7.822;2023-07-30T09:03:22;19.38;;;11.00;;
46415;SDS011;32620;51.704;7.822;2023-07-30T09:05:49;20.73;;;10.80;;
46415;SDS011;32620;51.704;7.822;2023-07-30T09:08:15;24.95;;;12.07;;
46415;SDS011;32620;51.704;7.822;2023-07-30T09:10:42;22.83;;;11.75;;
46415;SDS011;32620;51.704;7.822;2023-07-30T09:13:08;27.17;;;12.18;;
46415;SDS011;32620;51.704;7.822;2023-07-30T09:15:34;19.90;;;12.25;;
46415;SDS011;32620;51.704;7.822;2023-07-30T09:18:03;20.00;;;12.23;;
46415;SDS011;32620;51.704;7.822;2023-07-30T09:20:38;17.08;;;12.25;;
46415;SDS011;32620;51.704;7.822;2023-07-30T09:23:04;17.17;;;11.45;;
46415;SDS011;32620;51.704;7.822;2023-07-30T09:25:32;16.52;;;9.82;;
46415;SDS011;32620;51.704;7.822;2023-07-30T09:27:57;19.58;;;10.23;;
46415;SDS011;32620;51.704;7.822;2023-07-30T09:30:24;22.40;;;9.82;;
46415;SDS011;32620;51.704;7.822;2023-07-30T09:32:52;19.65;;;9.63;;
46415;SDS011;32620;51.704;7.822;2023-07-30T09:35:18;16.73;;;9.60;;
46415;SDS011;32620;51.704;7.822;2023-07-30T09:37:44;13.68;;;8.40;;
46415;SDS011;32620;51.704;7.822;2023-07-30T09:40:11;15.98;;;8.50;;
46415;SDS011;32620;51.704;7.822;2023-07-30T09:42:38;16.67;;;8.43;;
46415;SDS011;32620;51.704;7.822;2023-07-30T09:45:08;19.65;;;8.30;;
46415;SDS011;32620;51.704;7.822;2023-07-30T09:47:50;15.05;;;8.27;;
46415;SDS011;32620;51.704;7.822;2023-07-30T09:50:16;17.08;;;8.20;;
46415;SDS011;32620;51.704;7.822;2023-07-30T09:52:42;19.20;;;8.38;;
46415;SDS011;32620;51.704;7.822;2023-07-30T09:55:08;14.65;;;7.13;;
46415;SDS011;32620;51.704;7.822;2023-07-30T09:57:35;14.75;;;7.78;;
46415;SDS011;32620;51.704;7.822;2023-07-30T10:00:02;14.20;;;7.40;;
46415;SDS011;32620;51.704;7.822;2023-07-30T10:02:29;17.00;;;8.63;;
46415;SDS011;32620;51.704;7.822;2023-07-30T10:04:56;16.38;;;7.50;;
46415;SDS011;32620;51.704;7.822;2023-07-30T10:07:25;13.13;;;7.85;;
46415;SDS011;32620;51.704;7.822;2023-07-30T10:09:53;12.20;;;7.70;;
46415;SDS011;32620;51.704;7.822;2023-07-30T10:12:25;18.67;;;8.30;;
46415;SDS011;32620;51.704;7.822;2023-07-30T10:14:55;19.70;;;8.32;;
46415;SDS011;32620;51.704;7.822;2023-07-30T10:17:21;15.75;;;7.45;;
46415;SDS011;32620;51.704;7.822;2023-07-30T10:19:47;14.57;;;6.72;;
46415;SDS011;32620;51.704;7.822;2023-07-30T10:24:58;14.38;;;6.10;;
46415;SDS011;32620;51.704;7.822;2023-07-30T10:27:26;14.18;;;5.90;;
46415;SDS011;32620;51.704;7.822;2023-07-30T10:30:10;15.63;;;5.90;;
46415;SDS011;32620;51.704;7.822;2023-07-30T10:32:38;14.15;;;5.07;;
46415;SDS011;32620;51.704;7.822;2023-07-30T10:35:04;16.58;;;5.68;;
46415;SDS011;32620;51.704;7.822;2023-07-30T10:37:30;13.73;;;5.20;;
46415;SDS011;32620;51.704;7.822;2023-07-30T10:39:56;15.57;;;5.38;;
46415;SDS011;32620;51.704;7.822;2023-07-30T10:42:21;12.57;;;5.13;;
46415;SDS011;32620;51.704;7.822;2023-07-30T10:44:47;12.85;;;5.20;;
46415;SDS011;32620;51.704;7.822;2023-07-30T10:47:14;12.60;;;4.45;;
46415;SDS011;32620;51.704;7.822;2023-07-30T10:49:40;11.43;;;4.68;;
46415;SDS011;32620;51.704;7.822;2023-07-30T10:52:08;11.23;;;3.97;;
46415;SDS011;32620;51.704;7.822;2023-07-30T10:54:34;9.73;;;3.70;;
46415;SDS011;32620;51.704;7.822;2023-07-30T10:57:00;11.90;;;4.72;;
46415;SDS011;32620;51.704;7.822;2023-07-30T10:59:32;10.48;;;3.15;;
46415;SDS011;32620;51.704;7.822;2023-07-30T11:02:02;12.07;;;4.40;;
46415;SDS011;32620;51.704;7.822;2023-07-30T11:04:29;7.75;;;3.53;;
46415;SDS011;32620;51.704;7.822;2023-07-30T11:06:59;10.73;;;3.95;;
46415;SDS011;32620;51.704;7.822;2023-07-30T11:09:26;10.82;;;3.67;;
46415;SDS011;32620;51.704;7.822;2023-07-30T11:11:53;7.47;;;3.20;;
46415;SDS011;32620;51.704;7.822;2023-07-30T11:14:21;13.02;;;3.75;;
46415;SDS011;32620;51.704;7.822;2023-07-30T11:16:48;8.38;;;3.67;;
46415;SDS011;32620;51.704;7.822;2023-07-30T11:19:15;13.80;;;3.17;;
46415;SDS011;32620;51.704;7.822;2023-07-30T11:21:47;8.60;;;3.38;;
46415;SDS011;32620;51.704;7.822;2023-07-30T11:24:14;9.25;;;3.03;;
46415;SDS011;32620;51.704;7.822;2023-07-30T11:26:39;11.82;;;3.40;;
46415;SDS011;32620;51.704;7.822;2023-07-30T11:29:13;9.45;;;3.38;;
46415;SDS011;32620;51.704;7.822;2023-07-30T11:31:42;7.28;;;3.13;;
46415;SDS011;32620;51.704;7.822;2023-07-30T11:34:08;7.88;;;2.85;;
46415;SDS011;32620;51.704;7.822;2023-07-30T11:36:34;11.75;;;3.00;;
46415;SDS011;32620;51.704;7.822;2023-07-30T11:39:00;9.77;;;3.63;;
46415;SDS011;32620;51.704;7.822;2023-07-30T11:41:26;9.60;;;3.17;;
46415;SDS011;32620;51.704;7.822;2023-07-30T11:43:52;11.48;;;3.20;;
46415;SDS011;32620;51.704;7.822;2023-07-30T11:46:19;7.00;;;3.50;;
46415;SDS011;32620;51.704;7.822;2023-07-30T11:48:47;8.25;;;3.00;;
46415;SDS011;32620;51.704;7.822;2023-07-30T11:51:31;10.00;;;3.10;;
46415;SDS011;32620;51.704;7.822;2023-07-30T11:53:58;6.53;;;2.53;;
46415;SDS011;32620;51.704;7.822;2023-07-30T11:56:26;9.23;;;2.30;;
46415;SDS011;32620;51.704;7.822;2023-07-30T11:58:55;8.38;;;2.15;;
46415;SDS011;32620;51.704;7.822;2023-07-30T12:01:23;8.98;;;2.75;;
46415;SDS011;32620;51.704;7.822;2023-07-30T12:03:50;6.47;;;2.70;;
46415;SDS011;32620;51.704;7.822;2023-07-30T12:06:18;8.90;;;2.40;;
46415;SDS011;32620;51.704;7.822;2023-07-30T12:08:44;14.02;;;3.28;;
46415;SDS011;32620;51.704;7.822;2023-07-30T12:11:13;10.10;;;2.45;;
46415;SDS011;32620;51.704;7.822;2023-07-30T12:13:42;8.90;;;2.60;;
46415;SDS011;32620;51.704;7.822;2023-07-30T12:18:38;13.07;;;2.35;;
46415;SDS011;32620;51.704;7.822;2023-07-30T12:21:04;5.53;;;2.33;;
46415;SDS011;32620;51.704;7.822;2023-07-30T12:23:32;9.00;;;2.25;;
46415;SDS011;32620;51.704;7.822;2023-07-30T12:25:58;9.40;;;2.55;;
46415;SDS011;32620;51.704;7.822;2023-07-30T12:28:24;9.45;;;2.38;;
46415;SDS011;32620;51.704;7.822;2023-07-30T12:30:50;10.02;;;2.45;;
46415;SDS011;32620;51.704;7.822;2023-07-30T12:33:15;6.05;;;2.25;;
46415;SDS011;32620;51.704;7.822;2023-07-30T12:35:41;5.68;;;1.85;;
46415;SDS011;32620;51.704;7.822;2023-07-30T12:38:07;6.75;;;2.30;;
46415;SDS011;32620;51.704;7.822;2023-07-30T12:40:33;5.85;;;2.00;;
46415;SDS011;32620;51.704;7.822;2023-07-30T12:43:00;9.45;;;2.30;;
46415;SDS011;32620;51.704;7.822;2023-07-30T12:45:27;7.63;;;2.10;;
46415;SDS011;32620;51.704;7.822;2023-07-30T12:47:53;9.18;;;2.80;;
46415;SDS011;32620;51.704;7.822;2023-07-30T12:50:19;7.70;;;2.50;;
46415;SDS011;32620;51.704;7.822;2023-07-30T12:52:44;7.55;;;2.72;;
46415;SDS011;32620;51.704;7.822;2023-07-30T12:55:10;9.73;;;2.90;;
46415;SDS011;32620;51.704;7.822;2023-07-30T12:57:35;12.35;;;2.78;;
46415;SDS011;32620;51.704;7.822;2023-07-30T13:00:01;10.30;;;2.55;;
46415;SDS011;32620;51.704;7.822;2023-07-30T13:02:29;8.32;;;3.13;;
46415;SDS011;32620;51.704;7.822;2023-07-30T13:04:58;7.72;;;2.25;;
46415;SDS011;32620;51.704;7.822;2023-07-30T13:07:24;6.80;;;2.17;;
46415;SDS011;32620;51.704;7.822;2023-07-30T13:09:58;6.93;;;2.05;;
46415;SDS011;32620;51.704;7.822;2023-07-30T13:12:28;3.90;;;1.80;;
46415;SDS011;32620;51.704;7.822;2023-07-30T13:14:53;4.18;;;1.75;;
46415;SDS011;32620;51.704;7.822;2023-07-30T13:17:19;4.70;;;1.85;;
46415;SDS011;32620;51.704;7.822;2023-07-30T13:19:44;5.32;;;1.90;;
46415;SDS011;32620;51.704;7.822;2023-07-30T13:22:10;3.95;;;1.90;;
46415;SDS011;32620;51.704;7.822;2023-07-30T13:24:35;7.53;;;2.13;;
46415;SDS011;32620;51.704;7.822;2023-07-30T13:27:01;5.93;;;1.95;;
46415;SDS011;32620;51.704;7.822;2023-07-30T13:29:27;5.88;;;2.00;;
46415;SDS011;32620;51.704;7.822;2023-07-30T13:31:53;8.05;;;2.17;;
46415;SDS011;32620;51.704;7.822;2023-07-30T13:34:18;2.90;;;1.80;;
46415;SDS011;32620;51.704;7.822;2023-07-30T13:36:44;4.32;;;1.63;;
46415;SDS011;32620;51.704;7.822;2023-07-30T13:39:09;3.83;;;1.77;;
46415;SDS011;32620;51.704;7.822;2023-07-30T13:41:35;5.47;;;1.85;;
46415;SDS011;32620;51.704;7.822;2023-07-30T13:44:00;4.32;;;1.67;;
46415;SDS011;32620;51.704;7.822;2023-07-30T13:46:26;5.57;;;2.10;;
46415;SDS011;32620;51.704;7.822;2023-07-30T13:48:51;6.13;;;1.92;;
46415;SDS011;32620;51.704;7.822;2023-07-30T13:51:17;6.05;;;2.10;;
46415;SDS011;32620;51.704;7.822;2023-07-30T13:53:42;5.45;;;1.70;;
46415;SDS011;32620;51.704;7.822;2023-07-30T13:56:08;8.38;;;2.10;;
46415;SDS011;32620;51.704;7.822;2023-07-30T13:58:33;9.32;;;2.40;;
46415;SDS011;32620;51.704;7.822;2023-07-30T14:00:59;6.97;;;2.42;;
46415;SDS011;32620;51.704;7.822;2023-07-30T14:03:24;7.60;;;2.08;;
46415;SDS011;32620;51.704;7.822;2023-07-30T14:05:50;7.97;;;2.15;;
46415;SDS011;32620;51.704;7.822;2023-07-30T14:08:15;7.60;;;2.45;;
46415;SDS011;32620;51.704;7.822;2023-07-30T14:10:41;10.48;;;2.80;;
46415;SDS011;32620;51.704;7.822;2023-07-30T14:13:06;7.88;;;2.60;;
46415;SDS011;32620;51.704;7.822;2023-07-30T14:15:32;9.43;;;3.08;;
46415;SDS011;32620;51.704;7.822;2023-07-30T14:17:57;10.10;;;2.92;;
46415;SDS011;32620;51.704;7.822;2023-07-30T14:20:23;10.25;;;3.00;;
46415;SDS011;32620;51.704;7.822;2023-07-30T14:22:49;13.20;;;3.30;;
46415;SDS011;32620;51.704;7.822;2023-07-30T14:25:14;10.35;;;3.15;;
46415;SDS011;32620;51.704;7.822;2023-07-30T14:27:40;11.93;;;2.97;;
46415;SDS011;32620;51.704;7.822;2023-07-30T14:30:06;8.82;;;3.28;;
46415;SDS011;32620;51.704;7.822;2023-07-30T14:32:32;7.80;;;3.00;;